Home > Products > Valid Products > MTR

000
SAUS44 KLCH 150354
MTRP92
METAR KP92 150353Z AUTO VRB03KT 27/24 A3008 RMK AO1 SLP186 T02670244





000
SAUS44 KLCH 150254
MTRP92
METAR KP92 150253Z AUTO 01003KT 27/24 A3008 RMK AO1 SLP184 T02720244
53014





000
SAUS44 KLCH 150155
MTRP92
METAR KP92 150153Z AUTO VRB03KT 28/25 A3007 RMK AO1 SLP180 T02780250





000
SAUS44 KLCH 150054
MTRP92
METAR KP92 150053Z AUTO 00000KT 28/25 A3004 RMK AO1 SLP172 T02830250





000
SAUS44 KLCH 142355
MTRP92
METAR KP92 142353Z AUTO 00000KT 30/24 A3003 RMK AO1 SLP169 T03000244
10322 20283 55002





000
SAUS44 KLCH 142254
MTRP92
METAR KP92 142253Z AUTO VRB03KT 31/24 A3002 RMK AO1 SLP165 T03110244





000
SAUS44 KLCH 142154
MTRP92
METAR KP92 142153Z AUTO VRB03KT 32/24 A3003 RMK AO1 SLP167 T03170239





000
SAUS44 KLCH 142054
MTRP92
METAR KP92 142053Z AUTO VRB04KT 32/24 A3004 RMK AO1 SLP171 T03170244
56016





000
SAUS44 KLCH 141954
MTRP92
METAR KP92 141953Z AUTO VRB04KT 31/24 A3005 RMK AO1 SLP175 T03060239





000
SAUS44 KLCH 141854
MTRP92
METAR KP92 141853Z AUTO VRB04KT 30/23 A3006 RMK AO1 SLP177 T03000233





000
SAUS44 KLCH 141754
MTRP92
METAR KP92 141753Z AUTO VRB06KT 28/23 A3008 RMK AO1 SLP187 T02830228
10283 20233 58012





000
SAUS44 KLCH 141655
MTRP92
METAR KP92 141653Z AUTO VRB05KT 26/22 A3011 RMK AO1 SLP197 T02610222





000
SAUS44 KLCH 141555
MTRP92
METAR KP92 141553Z AUTO VRB05KT 25/22 A3012 RMK AO1 SLP198 T02500217





000
SAUS44 KLCH 141454
MTRP92
METAR KP92 141453Z AUTO VRB05KT 24/22 A3012 RMK AO1 SLP199 T02390217
51012





000
SAUS44 KLCH 141355
MTRP92
METAR KP92 141353Z AUTO VRB06KT 24/22 A3012 RMK AO1 SLP198 T02390217





000
SAUS44 KLCH 141254
MTRP92
METAR KP92 141253Z AUTO VRB05KT 23/21 A3010 RMK AO1 SLP192 T02330211





000
SAUS44 KLCH 141154
MTRP92
METAR KP92 141153Z AUTO VRB05KT 23/21 A3009 RMK AO1 SLP187 70002
T02330211 10239 20233 53008





000
SAUS44 KLCH 141054
MTRP92
METAR KP92 141053Z AUTO VRB04KT 23/21 A3008 RMK AO1 SLP185 T02330211





000
SAUS44 KLCH 140955
MTRP92
METAR KP92 140953Z AUTO 23/21 A3006 RMK AO1 SLP179 T02330211





000
SAUS44 KLCH 140854
MTRP92
METAR KP92 140853Z AUTO VRB03KT 24/21 A3006 RMK AO1 SLP179 T02390211





000
SAUS44 KLCH 140755
MTRP92
METAR KP92 140753Z AUTO VRB05KT 24/21 A3007 RMK AO1 SLP181 T02390211





000
SAUS44 KLCH 140654
MTRP92
METAR KP92 140653Z AUTO VRB04KT 24/22 A3007 RMK AO1 SLP183 T02390217





000
SAUS44 KLCH 140554
MTRP92
METAR KP92 140553Z AUTO VRB03KT 24/22 A3008 RMK AO1 SLP186 60001
T02390217 10267 20239 403060239 58001





000
SAUS44 KLCH 140455
MTRP92
METAR KP92 140453Z AUTO VRB05KT 24/22 A3009 RMK AO1 SLP187 P0001
T02440217





000
SAUS44 KLCH 140355
MTRP92
METAR KP92 140353Z AUTO VRB05KT 24/22 A3008 RMK AO1 SLP187 T02440217





000
SAUS44 KLCH 140256
MTRP92
METAR KP92 140253Z AUTO 35005KT 24/22 A3008 RMK AO1 SLP187 T02440222
51018





000
SAUS44 KLCH 140154
MTRP92
METAR KP92 140153Z AUTO VRB06KT 25/22 A3008 RMK AO1 SLP185 T02500222





000
SAUS44 KLCH 140054
MTRP92
METAR KP92 140053Z AUTO VRB05KT 26/23 A3005 RMK AO1 SLP174 T02560228





000
SAUS44 KLCH 132355
MTRP92
METAR KP92 132353Z AUTO 36007KT 27/23 A3003 RMK AO1 SLP169 60001
T02670233 10306 20267 53007





000
SAUS44 KLCH 132255
MTRP92
METAR KP92 132253Z AUTO 35009G16KT 28/24 A3001 RMK AO1 SLP162
T02830239





000
SAUS44 KLCH 132155
MTRP92
METAR KP92 132153Z AUTO 35008KT 29/24 A3000 RMK AO1 SLP160 T02940244





000
SAUS44 KLCH 132055
MTRP92
METAR KP92 132053Z AUTO 01007KT 320V030 29/24 A3001 RMK AO1 SLP162
60001 T02890244





000
SAUS44 KLCH 131954
MTRP92
METAR KP92 131953Z AUTO 30/24 A3003 RMK AO1 SLP167 T03000244





000
SAUS44 KLCH 131854
MTRP92
METAR KP92 131853Z AUTO VRB05KT 29/24 A3004 RMK AO1 SLP173 P0001
T02940244





000
SAUS44 KLCH 131755
MTRP92
METAR KP92 131753Z AUTO VRB06KT 29/24 A3005 RMK AO1 SLP176 T02890244
10289 20256 58001





000
SAUS44 KLCH 131655
MTRP92
METAR KP92 131653Z AUTO VRB04KT 28/24 A3007 RMK AO1 SLP180 T02780244





000
SAUS44 KLCH 131554
MTRP92
METAR KP92 131553Z AUTO 01007KT 340V040 27/24 A3007 RMK AO1 SLP182
T02720244





000
SAUS44 KLCH 131455
MTRP92
METAR KP92 131453Z AUTO 01005KT 27/24 A3006 RMK AO1 SLP177 T02670244
51017





000
SAUS44 KLCH 131355
MTRP92
METAR KP92 131353Z AUTO 02005KT 26/24 A3005 RMK AO1 SLP176 T02610244





000
SAUS44 KLCH 131254
MTRP92
METAR KP92 131253Z AUTO 01005KT 26/24 A3003 RMK AO1 SLP170 T02610244





000
SAUS44 KLCH 131154
MTRP92
METAR KP92 131153Z AUTO 01004KT 26/24 A3001 RMK AO1 SLP161 60001
70005 T02610244 10267 20261 53012





000
SAUS44 KLCH 131055
MTRP92
METAR KP92 131053Z AUTO 00000KT 26/25 A2999 RMK AO1 SLP154 T02610250





000
SAUS44 KLCH 130955
MTRP92
METAR KP92 130953Z AUTO 00000KT 26/25 A2997 RMK AO1 SLP150 P0001
T02610250





000
SAUS44 KLCH 130854
MTRP92
METAR KP92 130853Z AUTO 00000KT 26/25 A2997 RMK AO1 SLP149 T02610250





000
SAUS44 KLCH 130755
MTRP92
METAR KP92 130753Z AUTO 00000KT 27/25 A2998 RMK AO1 SLP151 T02670250





000
SAUS44 KLCH 130655
MTRP92
METAR KP92 130653Z AUTO 00000KT 27/25 A2999 RMK AO1 SLP154 T02670250





000
SAUS44 KLCH 130554
MTRP92
METAR KP92 130553Z AUTO 35003KT 27/25 A3001 RMK AO1 SLP160 60001
T02670250 10272 20267 403220261 58001





000
SAUS44 KLCH 130454
MTRP92
METAR KP92 130453Z AUTO 00000KT 27/26 A3002 RMK AO1 SLP164 T02670256





000
SAUS44 KLCH 130354
MTRP92
METAR KP92 130353Z AUTO 00000KT 27/26 A3002 RMK AO1 SLP164 P0001
T02720256





000
SAUS44 KLCH 130255
MTRP92
METAR KP92 130253Z AUTO 00000KT 27/26 A3001 RMK AO1 SLP162 T02720256
53015





000
SAUS44 KLCH 130155
MTRP92
METAR KP92 130153Z AUTO 00000KT 27/26 A2999 RMK AO1 SLP156 T02720256





000
SAUS44 KLCH 130055
MTRP92
METAR KP92 130053Z AUTO 00000KT 27/25 A2998 RMK AO1 SLP151 T02670250





000
SAUS44 KLCH 122355
MTRP92
METAR KP92 122353Z AUTO VRB03KT 27/24 A2997 RMK AO1 SLP147 P0001
60003 T02670239 10322 20267 53005





000
SAUS44 KLCH 122254
MTRP92
METAR KP92 122253Z AUTO VRB03KT 29/26 A2995 RMK AO1 SLP142 T02940256





000
SAUS44 KLCH 122154
MTRP92
METAR KP92 122153Z AUTO 00000KT 31/26 A2995 RMK AO1 SLP140 T03060256





000
SAUS44 KLCH 122055
MTRP92
METAR KP92 122053Z AUTO VRB04KT 32/26 A2995 RMK AO1 SLP142 P0001
60002 T03170256 58010





000
SAUS44 KLCH 121955
MTRP92
METAR KP92 121953Z AUTO 11003KT 30/25 A2996 RMK AO1 SLP146 T03000250





000
SAUS44 KLCH 121855
MTRP92
METAR KP92 121853Z AUTO VRB06KT 31/26 A2997 RMK AO1 SLP150 P0001
T03060256





000
SAUS44 KLCH 121755
MTRP92
METAR KP92 121753Z AUTO VRB04KT 31/26 A2998 RMK AO1 SLP153 T03060256
10317 20261 58002





000
SAUS44 KLCH 121655
MTRP92
METAR KP92 121653Z AUTO 00000KT 27/24 A2999 RMK AO1 SLP157 T02670244





000
SAUS44 KLCH 121554
MTRP92
METAR KP92 121553Z AUTO VRB03KT 31/26 A2999 RMK AO1 SLP155 T03110261





000
SAUS44 KLCH 121454
MTRP92
METAR KP92 121453Z AUTO VRB03KT 31/26 A2999 RMK AO1 SLP154 T03110261
51007





000
SAUS44 KLCH 121355
MTRP92
METAR KP92 121353Z AUTO VRB04KT 29/26 A2998 RMK AO1 SLP153 T02890261





000
SAUS44 KLCH 121254
MTRP92
METAR KP92 121253Z AUTO VRB03KT 27/25 A2998 RMK AO1 SLP150 T02670250





000
SAUS44 KLCH 121154
MTRP92
METAR KP92 121153Z AUTO 05003KT 26/24 A2997 RMK AO1 SLP147 P0001
60001 70005 T02610244 10261 20261 53005





000
SAUS44 KLCH 121055
MTRP92
METAR KP92 121053Z AUTO 00000KT 26/24 A2996 RMK AO1 SLP144 T02610244





000
SAUS44 KLCH 120955
MTRP92
METAR KP92 120953Z AUTO 00000KT 26/24 A2995 RMK AO1 SLP142 T02610244





000
SAUS44 KLCH 120854
MTRP92
METAR KP92 120853Z AUTO 00000KT 26/24 A2995 RMK AO1 SLP141 T02610244
56006





000
SAUS44 KLCH 120755
MTRP92
METAR KP92 120753Z AUTO 00000KT 26/24 A2995 RMK AO1 SLP142 T02610244





000
SAUS44 KLCH 120655
MTRP92
METAR KP92 120653Z AUTO 00000KT 26/24 A2996 RMK AO1 SLP146 T02610244





000
SAUS44 KLCH 120555
MTRP92
METAR KP92 120553Z AUTO 00000KT 26/24 A2997 RMK AO1 SLP147 60001
T02610244 10267 20261 403440261 58001





000
SAUS44 KLCH 120455
MTRP92
METAR KP92 120453Z AUTO 00000KT 26/25 A2998 RMK AO1 SLP150 T02610250





    US Dept of Commerce
    National Oceanic and Atmospheric Administration
    National Weather Service
    1325 East West Highway
    Silver Spring, MD 20910
    Page Author: NWS Internet Services Team
Disclaimer
Information Quality
Credits
Glossary
Privacy Policy
Freedom of Information Act (FOIA)
About Us
Career Opportunities